sensor_id;sensor_type;location;lat;lon;timestamp;pressure;altitude;pressure_sealevel;temperature;humidity
19736;BME280;32064;49.310;8.646;2023-03-23T00:02:27;99836.09;;;17.69;50.57
19736;BME280;32064;49.310;8.646;2023-03-23T00:04:53;99833.44;;;17.69;51.40
19736;BME280;32064;49.310;8.646;2023-03-23T00:07:22;99832.09;;;17.65;50.87
19736;BME280;32064;49.310;8.646;2023-03-23T00:09:53;99820.63;;;17.65;49.94
19736;BME280;32064;49.310;8.646;2023-03-23T00:12:30;99820.63;;;17.65;50.63
19736;BME280;32064;49.310;8.646;2023-03-23T00:15:00;99811.63;;;17.66;50.23
19736;BME280;32064;49.310;8.646;2023-03-23T00:17:27;99808.81;;;17.67;50.03
19736;BME280;32064;49.310;8.646;2023-03-23T00:19:53;99806.63;;;17.71;50.11
19736;BME280;32064;49.310;8.646;2023-03-23T00:22:18;99807.81;;;17.68;50.65
19736;BME280;32064;49.310;8.646;2023-03-23T00:24:47;99803.81;;;17.72;49.94
19736;BME280;32064;49.310;8.646;2023-03-23T00:27:13;99802.81;;;17.73;50.61
19736;BME280;32064;49.310;8.646;2023-03-23T00:29:40;99800.16;;;17.73;49.50
19736;BME280;32064;49.310;8.646;2023-03-23T00:32:07;99789.03;;;17.70;50.36
19736;BME280;32064;49.310;8.646;2023-03-23T00:34:38;99799.47;;;17.71;49.60
19736;BME280;32064;49.310;8.646;2023-03-23T00:37:06;99793.19;;;17.72;50.80
19736;BME280;32064;49.310;8.646;2023-03-23T00:39:33;99784.38;;;17.72;50.13
19736;BME280;32064;49.310;8.646;2023-03-23T00:42:02;99789.03;;;17.70;50.01
19736;BME280;32064;49.310;8.646;2023-03-23T00:44:29;99791.19;;;17.66;50.31
19736;BME280;32064;49.310;8.646;2023-03-23T00:46:56;99793.66;;;17.68;50.68
19736;BME280;32064;49.310;8.646;2023-03-23T00:49:23;99793.19;;;17.64;50.64
19736;BME280;32064;49.310;8.646;2023-03-23T00:51:53;99786.38;;;17.62;49.65
19736;BME280;32064;49.310;8.646;2023-03-23T00:54:19;99776.56;;;17.62;50.16
19736;BME280;32064;49.310;8.646;2023-03-23T00:56:45;99791.69;;;17.62;50.02
19736;BME280;32064;49.310;8.646;2023-03-23T00:59:10;99793.53;;;17.61;51.27
19736;BME280;32064;49.310;8.646;2023-03-23T01:01:36;99797.50;;;17.57;51.15
19736;BME280;32064;49.310;8.646;2023-03-23T01:04:02;99796.88;;;17.55;51.70
19736;BME280;32064;49.310;8.646;2023-03-23T01:06:30;99792.19;;;17.49;51.89
19736;BME280;32064;49.310;8.646;2023-03-23T01:08:57;99790.53;;;17.48;51.95
19736;BME280;32064;49.310;8.646;2023-03-23T01:11:23;99789.03;;;17.45;52.52
19736;BME280;32064;49.310;8.646;2023-03-23T01:13:50;99785.72;;;17.43;52.41
19736;BME280;32064;49.310;8.646;2023-03-23T01:16:16;99781.56;;;17.41;50.65
19736;BME280;32064;49.310;8.646;2023-03-23T01:18:42;99783.72;;;17.37;53.04
19736;BME280;32064;49.310;8.646;2023-03-23T01:21:10;99786.91;;;17.33;51.94
19736;BME280;32064;49.310;8.646;2023-03-23T01:23:37;99783.91;;;17.27;53.15
19736;BME280;32064;49.310;8.646;2023-03-23T01:26:07;99771.91;;;17.23;53.41
19736;BME280;32064;49.310;8.646;2023-03-23T01:28:33;99775.75;;;17.21;52.48
19736;BME280;32064;49.310;8.646;2023-03-23T01:31:05;99767.47;;;17.16;52.36
19736;BME280;32064;49.310;8.646;2023-03-23T01:33:31;99769.59;;;17.12;51.83
19736;BME280;32064;49.310;8.646;2023-03-23T01:36:02;99764.94;;;17.06;52.97
19736;BME280;32064;49.310;8.646;2023-03-23T01:38:28;99760.97;;;17.02;52.53
19736;BME280;32064;49.310;8.646;2023-03-23T01:40:53;99754.16;;;16.99;53.85
19736;BME280;32064;49.310;8.646;2023-03-23T01:43:19;99747.00;;;17.00;53.92
19736;BME280;32064;49.310;8.646;2023-03-23T01:45:45;99742.69;;;16.99;53.61
19736;BME280;32064;49.310;8.646;2023-03-23T01:48:22;99746.50;;;16.96;53.26
19736;BME280;32064;49.310;8.646;2023-03-23T01:51:17;99757.59;;;16.83;53.14
19736;BME280;32064;49.310;8.646;2023-03-23T01:53:46;99747.31;;;16.80;53.09
19736;BME280;32064;49.310;8.646;2023-03-23T01:56:17;99752.81;;;16.79;54.63
19736;BME280;32064;49.310;8.646;2023-03-23T01:58:45;99754.47;;;16.80;54.38
19736;BME280;32064;49.310;8.646;2023-03-23T02:01:13;99755.13;;;16.82;53.89
19736;BME280;32064;49.310;8.646;2023-03-23T02:03:42;99748.31;;;16.79;54.67
19736;BME280;32064;49.310;8.646;2023-03-23T02:06:09;99733.84;;;16.74;54.69
19736;BME280;32064;49.310;8.646;2023-03-23T02:08:35;99730.16;;;16.75;54.97
19736;BME280;32064;49.310;8.646;2023-03-23T02:11:01;99715.25;;;16.74;55.17
19736;BME280;32064;49.310;8.646;2023-03-23T02:13:27;99715.25;;;16.74;53.74
19736;BME280;32064;49.310;8.646;2023-03-23T02:16:04;99698.47;;;16.73;54.71
19736;BME280;32064;49.310;8.646;2023-03-23T02:18:52;99694.47;;;16.69;55.23
19736;BME280;32064;49.310;8.646;2023-03-23T02:24:34;99707.94;;;16.68;54.39
19736;BME280;32064;49.310;8.646;2023-03-23T02:27:11;99695.63;;;16.67;55.20
19736;BME280;32064;49.310;8.646;2023-03-23T02:29:53;99700.44;;;16.63;55.95
19736;BME280;32064;49.310;8.646;2023-03-23T02:35:24;99706.56;;;16.55;55.13
19736;BME280;32064;49.310;8.646;2023-03-23T02:38:18;99708.22;;;16.48;56.13
19736;BME280;32064;49.310;8.646;2023-03-23T02:40:48;99702.59;;;16.51;55.83
19736;BME280;32064;49.310;8.646;2023-03-23T02:43:17;99699.59;;;16.54;56.22
19736;BME280;32064;49.310;8.646;2023-03-23T02:45:45;99692.31;;;16.56;55.10
19736;BME280;32064;49.310;8.646;2023-03-23T02:48:13;99688.50;;;16.59;56.02
19736;BME280;32064;49.310;8.646;2023-03-23T02:50:42;99684.84;;;16.60;55.38
19736;BME280;32064;49.310;8.646;2023-03-23T02:53:11;99677.03;;;16.58;56.72
19736;BME280;32064;49.310;8.646;2023-03-23T02:55:39;99686.00;;;16.57;56.94
19736;BME280;32064;49.310;8.646;2023-03-23T02:58:11;99684.34;;;16.56;56.13
19736;BME280;32064;49.310;8.646;2023-03-23T03:00:37;99686.16;;;16.56;57.14
19736;BME280;32064;49.310;8.646;2023-03-23T03:03:05;99681.50;;;16.50;56.88
19736;BME280;32064;49.310;8.646;2023-03-23T03:08:27;99695.94;;;16.47;57.37
19736;BME280;32064;49.310;8.646;2023-03-23T03:13:50;99689.16;;;16.45;56.14
19736;BME280;32064;49.310;8.646;2023-03-23T03:16:27;99687.31;;;16.45;56.07
19736;BME280;32064;49.310;8.646;2023-03-23T03:19:06;99692.09;;;16.42;56.38
19736;BME280;32064;49.310;8.646;2023-03-23T03:21:36;99698.88;;;16.36;57.36
19736;BME280;32064;49.310;8.646;2023-03-23T03:24:05;99686.78;;;16.33;57.75
19736;BME280;32064;49.310;8.646;2023-03-23T03:26:37;99688.78;;;16.31;57.61
19736;BME280;32064;49.310;8.646;2023-03-23T03:29:05;99688.44;;;16.26;57.01
19736;BME280;32064;49.310;8.646;2023-03-23T03:31:38;99684.75;;;16.27;57.42
19736;BME280;32064;49.310;8.646;2023-03-23T03:34:05;99682.63;;;16.31;56.62
19736;BME280;32064;49.310;8.646;2023-03-23T03:36:33;99680.81;;;16.31;57.03
19736;BME280;32064;49.310;8.646;2023-03-23T03:39:09;99688.09;;;16.29;57.06
19736;BME280;32064;49.310;8.646;2023-03-23T03:41:35;99695.72;;;16.32;57.80
19736;BME280;32064;49.310;8.646;2023-03-23T03:44:03;99693.41;;;16.29;57.84
19736;BME280;32064;49.310;8.646;2023-03-23T03:46:29;99697.22;;;16.27;58.38
19736;BME280;32064;49.310;8.646;2023-03-23T03:48:59;99692.41;;;16.30;57.46
19736;BME280;32064;49.310;8.646;2023-03-23T03:51:27;99695.91;;;16.31;58.40
19736;BME280;32064;49.310;8.646;2023-03-23T03:53:52;99701.22;;;16.31;57.61
19736;BME280;32064;49.310;8.646;2023-03-23T03:56:18;99691.06;;;16.26;57.21
19736;BME280;32064;49.310;8.646;2023-03-23T03:58:45;99689.09;;;16.28;58.11
19736;BME280;32064;49.310;8.646;2023-03-23T04:01:14;99692.59;;;16.29;57.83
19736;BME280;32064;49.310;8.646;2023-03-23T04:03:40;99695.56;;;16.26;57.80
19736;BME280;32064;49.310;8.646;2023-03-23T04:06:06;99689.09;;;16.28;58.36
19736;BME280;32064;49.310;8.646;2023-03-23T04:08:33;99684.63;;;16.29;57.75
19736;BME280;32064;49.310;8.646;2023-03-23T04:10:59;99682.78;;;16.29;57.73
19736;BME280;32064;49.310;8.646;2023-03-23T04:13:25;99691.91;;;16.27;58.27
19736;BME280;32064;49.310;8.646;2023-03-23T04:15:50;99684.28;;;16.24;58.02
19736;BME280;32064;49.310;8.646;2023-03-23T04:18:16;99695.38;;;16.27;59.01
19736;BME280;32064;49.310;8.646;2023-03-23T04:20:47;99696.84;;;16.22;58.00
19736;BME280;32064;49.310;8.646;2023-03-23T04:23:18;99707.66;;;16.20;59.04
19736;BME280;32064;49.310;8.646;2023-03-23T04:25:49;99705.50;;;16.24;58.99
19736;BME280;32064;49.310;8.646;2023-03-23T04:28:19;99700.03;;;16.25;58.52
19736;BME280;32064;49.310;8.646;2023-03-23T04:30:50;99710.47;;;16.27;59.42
19736;BME280;32064;49.310;8.646;2023-03-23T04:33:22;99714.97;;;16.26;58.87
19736;BME280;32064;49.310;8.646;2023-03-23T04:35:50;99713.31;;;16.25;59.51
19736;BME280;32064;49.310;8.646;2023-03-23T04:38:21;99722.25;;;16.24;58.89
19736;BME280;32064;49.310;8.646;2023-03-23T04:40:51;99717.28;;;16.21;58.96
19736;BME280;32064;49.310;8.646;2023-03-23T04:43:18;99716.59;;;16.19;59.45
19736;BME280;32064;49.310;8.646;2023-03-23T04:45:47;99729.56;;;16.22;59.35
19736;BME280;32064;49.310;8.646;2023-03-23T04:48:12;99717.28;;;16.21;59.60
19736;BME280;32064;49.310;8.646;2023-03-23T04:50:39;99719.75;;;16.14;58.09
19736;BME280;32064;49.310;8.646;2023-03-23T04:53:04;99731.03;;;16.16;58.71
19736;BME280;32064;49.310;8.646;2023-03-23T04:55:35;99735.50;;;16.16;59.88
19736;BME280;32064;49.310;8.646;2023-03-23T04:58:06;99730.19;;;16.16;59.31
19736;BME280;32064;49.310;8.646;2023-03-23T05:00:34;99744.47;;;16.15;59.05
19736;BME280;32064;49.310;8.646;2023-03-23T05:03:00;99742.81;;;16.14;59.53
19736;BME280;32064;49.310;8.646;2023-03-23T05:05:26;99746.28;;;16.14;59.36
19736;BME280;32064;49.310;8.646;2023-03-23T05:07:53;99752.75;;;16.12;59.35
19736;BME280;32064;49.310;8.646;2023-03-23T05:10:18;99756.22;;;16.12;59.86
19736;BME280;32064;49.310;8.646;2023-03-23T05:12:44;99761.03;;;16.09;60.36
19736;BME280;32064;49.310;8.646;2023-03-23T05:15:11;99764.47;;;16.01;61.33
19736;BME280;32064;49.310;8.646;2023-03-23T05:17:37;99764.31;;;16.03;61.90
19736;BME280;32064;49.310;8.646;2023-03-23T05:20:04;99766.66;;;16.06;62.94
19736;BME280;32064;49.310;8.646;2023-03-23T05:22:33;99761.66;;;16.03;63.08
19736;BME280;32064;49.310;8.646;2023-03-23T05:24:59;99770.41;;;15.95;62.30
19736;BME280;32064;49.310;8.646;2023-03-23T05:27:27;99762.91;;;15.90;63.41
19736;BME280;32064;49.310;8.646;2023-03-23T05:29:56;99762.09;;;15.90;63.71
19736;BME280;32064;49.310;8.646;2023-03-23T05:32:26;99766.25;;;15.92;63.85
19736;BME280;32064;49.310;8.646;2023-03-23T05:34:58;99768.22;;;15.90;63.66
19736;BME280;32064;49.310;8.646;2023-03-23T05:37:25;99763.28;;;15.96;63.12
19736;BME280;32064;49.310;8.646;2023-03-23T05:39:52;99766.78;;;16.04;63.29
19736;BME280;32064;49.310;8.646;2023-03-23T05:42:20;99764.69;;;16.08;62.89
19736;BME280;32064;49.310;8.646;2023-03-23T05:44:46;99769.66;;;16.11;61.86
19736;BME280;32064;49.310;8.646;2023-03-23T05:47:11;99758.88;;;16.12;62.60
19736;BME280;32064;49.310;8.646;2023-03-23T05:49:37;99759.91;;;16.20;61.96
19736;BME280;32064;49.310;8.646;2023-03-23T05:52:03;99767.69;;;16.21;61.22
19736;BME280;32064;49.310;8.646;2023-03-23T05:54:28;99770.56;;;16.28;62.68
19736;BME280;32064;49.310;8.646;2023-03-23T05:56:54;99767.41;;;16.32;61.36
19736;BME280;32064;49.310;8.646;2023-03-23T05:59:19;99760.28;;;16.33;61.77
19736;BME280;32064;49.310;8.646;2023-03-23T06:01:44;99773.53;;;16.33;61.65
19736;BME280;32064;49.310;8.646;2023-03-23T06:04:10;99772.06;;;16.38;61.01
19736;BME280;32064;49.310;8.646;2023-03-23T06:06:37;99783.22;;;16.42;61.55
19736;BME280;32064;49.310;8.646;2023-03-23T06:09:02;99773.09;;;16.46;62.07
19736;BME280;32064;49.310;8.646;2023-03-23T06:11:28;99779.25;;;16.46;61.51
19736;BME280;32064;49.310;8.646;2023-03-23T06:13:54;99788.22;;;16.45;61.70
19736;BME280;32064;49.310;8.646;2023-03-23T06:16:19;99778.09;;;16.49;62.33
19736;BME280;32064;49.310;8.646;2023-03-23T06:18:45;99782.41;;;16.50;61.55
19736;BME280;32064;49.310;8.646;2023-03-23T06:21:11;99794.53;;;16.52;60.24
19736;BME280;32064;49.310;8.646;2023-03-23T06:23:37;99790.56;;;16.56;60.37
19736;BME280;32064;49.310;8.646;2023-03-23T06:26:06;99796.38;;;16.60;60.65
19736;BME280;32064;49.310;8.646;2023-03-23T06:28:32;99800.88;;;16.59;61.74
19736;BME280;32064;49.310;8.646;2023-03-23T06:31:00;99791.75;;;16.62;61.81
19736;BME280;32064;49.310;8.646;2023-03-23T06:33:25;99801.53;;;16.61;61.19
19736;BME280;32064;49.310;8.646;2023-03-23T06:35:51;99796.38;;;16.60;61.26
19736;BME280;32064;49.310;8.646;2023-03-23T06:38:16;99792.41;;;16.64;59.93
19736;BME280;32064;49.310;8.646;2023-03-23T06:40:42;99794.09;;;16.65;60.79
19736;BME280;32064;49.310;8.646;2023-03-23T06:43:11;99789.41;;;16.67;60.78
19736;BME280;32064;49.310;8.646;2023-03-23T06:45:36;99788.44;;;16.68;59.89
19736;BME280;32064;49.310;8.646;2023-03-23T06:48:02;99792.94;;;16.68;60.82
19736;BME280;32064;49.310;8.646;2023-03-23T06:50:27;99789.13;;;16.70;59.22
19736;BME280;32064;49.310;8.646;2023-03-23T06:52:53;99789.41;;;16.67;59.48
19736;BME280;32064;49.310;8.646;2023-03-23T06:55:19;99805.34;;;16.67;60.17
19736;BME280;32064;49.310;8.646;2023-03-23T06:57:44;99813.31;;;16.67;60.32
19736;BME280;32064;49.310;8.646;2023-03-23T07:00:11;99810.66;;;16.67;59.69
19736;BME280;32064;49.310;8.646;2023-03-23T07:02:41;99817.66;;;16.68;60.22
19736;BME280;32064;49.310;8.646;2023-03-23T07:05:08;99820.47;;;16.67;58.37
19736;BME280;32064;49.310;8.646;2023-03-23T07:07:36;99827.28;;;16.69;59.81
19736;BME280;32064;49.310;8.646;2023-03-23T07:10:04;99833.41;;;16.70;59.11
19736;BME280;32064;49.310;8.646;2023-03-23T07:12:30;99831.63;;;16.70;59.91
19736;BME280;32064;49.310;8.646;2023-03-23T07:14:56;99832.94;;;16.74;59.51
19736;BME280;32064;49.310;8.646;2023-03-23T07:17:22;99834.59;;;16.75;59.29
19736;BME280;32064;49.310;8.646;2023-03-23T07:19:47;99840.97;;;16.82;60.14
19736;BME280;32064;49.310;8.646;2023-03-23T07:22:13;99860.72;;;16.80;60.60
19736;BME280;32064;49.310;8.646;2023-03-23T07:24:38;99866.38;;;16.77;59.95
19736;BME280;32064;49.310;8.646;2023-03-23T07:27:04;99871.69;;;16.77;61.51
19736;BME280;32064;49.310;8.646;2023-03-23T07:29:29;99865.53;;;16.76;61.68
19736;BME280;32064;49.310;8.646;2023-03-23T07:31:55;99859.16;;;16.69;61.39
19736;BME280;32064;49.310;8.646;2023-03-23T07:34:21;99863.66;;;16.69;62.23
19736;BME280;32064;49.310;8.646;2023-03-23T07:36:47;99869.97;;;16.68;61.36
19736;BME280;32064;49.310;8.646;2023-03-23T07:39:13;99870.94;;;16.67;61.21
19736;BME280;32064;49.310;8.646;2023-03-23T07:41:39;99875.06;;;16.61;61.99
19736;BME280;32064;49.310;8.646;2023-03-23T07:44:04;99885.91;;;16.68;62.41
19736;BME280;32064;49.310;8.646;2023-03-23T07:46:31;99877.06;;;16.67;62.29
19736;BME280;32064;49.310;8.646;2023-03-23T07:48:57;99886.09;;;16.74;61.83
19736;BME280;32064;49.310;8.646;2023-03-23T07:51:23;99879.94;;;16.74;61.56
19736;BME280;32064;49.310;8.646;2023-03-23T07:53:50;99889.44;;;16.76;60.96
19736;BME280;32064;49.310;8.646;2023-03-23T07:56:16;99889.50;;;16.85;61.94
19736;BME280;32064;49.310;8.646;2023-03-23T07:58:45;99895.97;;;16.90;61.48
19736;BME280;32064;49.310;8.646;2023-03-23T08:01:10;99894.97;;;16.91;60.58
19736;BME280;32064;49.310;8.646;2023-03-23T08:03:37;99896.47;;;16.94;61.13
19736;BME280;32064;49.310;8.646;2023-03-23T08:06:03;99892.16;;;17.01;60.87
19736;BME280;32064;49.310;8.646;2023-03-23T08:08:29;99897.16;;;17.04;62.04
19736;BME280;32064;49.310;8.646;2023-03-23T08:10:55;99900.50;;;17.06;62.13
19736;BME280;32064;49.310;8.646;2023-03-23T08:13:21;99898.66;;;17.06;62.49
19736;BME280;32064;49.310;8.646;2023-03-23T08:15:46;99903.97;;;17.06;62.43
19736;BME280;32064;49.310;8.646;2023-03-23T08:18:12;99897.50;;;17.09;62.20
19736;BME280;32064;49.310;8.646;2023-03-23T08:20:37;99907.34;;;17.17;60.93
19736;BME280;32064;49.310;8.646;2023-03-23T08:23:03;99897.56;;;17.25;62.04
19736;BME280;32064;49.310;8.646;2023-03-23T08:25:29;99915.00;;;17.28;60.96
19736;BME280;32064;49.310;8.646;2023-03-23T08:27:57;99908.34;;;17.32;61.37
19736;BME280;32064;49.310;8.646;2023-03-23T08:30:23;99910.69;;;17.35;60.66
19736;BME280;32064;49.310;8.646;2023-03-23T08:32:51;99916.97;;;17.18;60.67
19736;BME280;32064;49.310;8.646;2023-03-23T08:35:18;99921.16;;;17.28;60.65
19736;BME280;32064;49.310;8.646;2023-03-23T08:37:45;99920.34;;;17.36;61.03
19736;BME280;32064;49.310;8.646;2023-03-23T08:40:13;99906.41;;;17.42;60.29
19736;BME280;32064;49.310;8.646;2023-03-23T08:42:42;99914.72;;;17.56;60.60
19736;BME280;32064;49.310;8.646;2023-03-23T08:45:09;99925.53;;;17.62;61.07
19736;BME280;32064;49.310;8.646;2023-03-23T08:47:36;99924.22;;;17.66;61.46
19736;BME280;32064;49.310;8.646;2023-03-23T08:50:03;99924.38;;;17.65;60.45
19736;BME280;32064;49.310;8.646;2023-03-23T08:52:29;99928.03;;;17.64;61.87
19736;BME280;32064;49.310;8.646;2023-03-23T08:54:55;99933.03;;;17.75;61.13
19736;BME280;32064;49.310;8.646;2023-03-23T08:57:20;99923.41;;;17.82;61.11
19736;BME280;32064;49.310;8.646;2023-03-23T08:59:45;99928.59;;;17.92;60.51
19736;BME280;32064;49.310;8.646;2023-03-23T09:02:12;99936.56;;;17.92;60.90
19736;BME280;32064;49.310;8.646;2023-03-23T09:04:40;99938.72;;;17.97;60.29
19736;BME280;32064;49.310;8.646;2023-03-23T09:07:10;99933.72;;;18.10;61.71
19736;BME280;32064;49.310;8.646;2023-03-23T09:09:37;99937.22;;;18.10;60.49
19736;BME280;32064;49.310;8.646;2023-03-23T09:12:05;99938.72;;;18.13;61.76
19736;BME280;32064;49.310;8.646;2023-03-23T09:14:31;99947.03;;;18.10;61.21
19736;BME280;32064;49.310;8.646;2023-03-23T09:16:56;99947.84;;;18.10;61.05
19736;BME280;32064;49.310;8.646;2023-03-23T09:19:22;99944.03;;;18.13;60.57
19736;BME280;32064;49.310;8.646;2023-03-23T09:21:48;99936.88;;;18.13;61.06
19736;BME280;32064;49.310;8.646;2023-03-23T09:24:13;99947.03;;;18.18;61.78
19736;BME280;32064;49.310;8.646;2023-03-23T09:26:39;99947.19;;;18.16;61.00
19736;BME280;32064;49.310;8.646;2023-03-23T09:29:04;99955.66;;;18.20;61.04
19736;BME280;32064;49.310;8.646;2023-03-23T09:31:30;99951.50;;;18.26;61.99
19736;BME280;32064;49.310;8.646;2023-03-23T09:33:57;99961.50;;;18.24;61.50
19736;BME280;32064;49.310;8.646;2023-03-23T09:36:24;99952.16;;;18.28;60.76
19736;BME280;32064;49.310;8.646;2023-03-23T09:38:51;99960.16;;;18.36;62.09
19736;BME280;32064;49.310;8.646;2023-03-23T09:41:41;99968.28;;;18.43;61.45
19736;BME280;32064;49.310;8.646;2023-03-23T09:44:54;99975.97;;;18.37;60.59
19736;BME280;32064;49.310;8.646;2023-03-23T09:47:50;99968.94;;;18.45;60.48
19736;BME280;32064;49.310;8.646;2023-03-23T09:50:15;99982.72;;;18.65;60.07
19736;BME280;32064;49.310;8.646;2023-03-23T09:52:53;99977.25;;;18.82;58.56
19736;BME280;32064;49.310;8.646;2023-03-23T09:55:20;99977.88;;;18.84;59.44
19736;BME280;32064;49.310;8.646;2023-03-23T09:57:58;99978.41;;;18.72;59.38
19736;BME280;32064;49.310;8.646;2023-03-23T10:00:37;99990.91;;;18.63;59.22
19736;BME280;32064;49.310;8.646;2023-03-23T10:03:16;99983.44;;;18.50;59.34
19736;BME280;32064;49.310;8.646;2023-03-23T10:08:25;99979.28;;;18.48;58.78
19736;BME280;32064;49.310;8.646;2023-03-23T10:11:02;99975.53;;;18.73;58.65
19736;BME280;32064;49.310;8.646;2023-03-23T10:16:09;99972.81;;;19.06;57.56
19736;BME280;32064;49.310;8.646;2023-03-23T10:18:49;99967.53;;;19.29;58.37
19736;BME280;32064;49.310;8.646;2023-03-23T10:21:21;99973.34;;;19.33;57.20
19736;BME280;32064;49.310;8.646;2023-03-23T10:31:51;99965.69;;;19.29;57.27
19736;BME280;32064;49.310;8.646;2023-03-23T10:34:23;99958.16;;;19.33;58.22
19736;BME280;32064;49.310;8.646;2023-03-23T10:39:43;99971.59;;;19.17;58.04
19736;BME280;32064;49.310;8.646;2023-03-23T10:42:10;99969.31;;;19.05;58.98
19736;BME280;32064;49.310;8.646;2023-03-23T10:44:36;99965.69;;;18.90;58.74
19736;BME280;32064;49.310;8.646;2023-03-23T10:47:07;99970.22;;;18.73;58.55
19736;BME280;32064;49.310;8.646;2023-03-23T10:49:36;99955.41;;;18.79;60.05
19736;BME280;32064;49.310;8.646;2023-03-23T10:52:37;99954.41;;;18.80;59.74
19736;BME280;32064;49.310;8.646;2023-03-23T10:57:37;99971.97;;;19.05;59.35
19736;BME280;32064;49.310;8.646;2023-03-23T11:02:40;99971.22;;;18.89;60.37
19736;BME280;32064;49.310;8.646;2023-03-23T11:07:40;99983.75;;;18.80;59.79
19736;BME280;32064;49.310;8.646;2023-03-23T11:10:21;99989.75;;;18.57;61.18
19736;BME280;32064;49.310;8.646;2023-03-23T11:12:47;99988.06;;;18.56;62.00
19736;BME280;32064;49.310;8.646;2023-03-23T11:15:34;99982.28;;;18.45;62.80
19736;BME280;32064;49.310;8.646;2023-03-23T11:18:12;99991.09;;;18.37;62.57
19736;BME280;32064;49.310;8.646;2023-03-23T11:20:43;99993.81;;;18.29;62.61
19736;BME280;32064;49.310;8.646;2023-03-23T11:23:57;99991.13;;;18.29;62.88
19736;BME280;32064;49.310;8.646;2023-03-23T11:26:09;100012.09;;;18.24;62.85
19736;BME280;32064;49.310;8.646;2023-03-23T11:28:38;100008.09;;;18.20;62.78
19736;BME280;32064;49.310;8.646;2023-03-23T11:31:07;100001.25;;;18.25;62.93
19736;BME280;32064;49.310;8.646;2023-03-23T11:33:50;99993.13;;;18.35;63.63
19736;BME280;32064;49.310;8.646;2023-03-23T11:36:17;99993.94;;;18.35;62.44
19736;BME280;32064;49.310;8.646;2023-03-23T11:38:44;99990.47;;;18.35;63.84
19736;BME280;32064;49.310;8.646;2023-03-23T11:41:11;99983.09;;;18.45;62.17
19736;BME280;32064;49.310;8.646;2023-03-23T11:43:44;99995.94;;;18.42;62.74
19736;BME280;32064;49.310;8.646;2023-03-23T11:46:29;99991.63;;;18.40;62.18
19736;BME280;32064;49.310;8.646;2023-03-23T11:49:01;99996.94;;;18.49;62.93
19736;BME280;32064;49.310;8.646;2023-03-23T11:51:42;99997.91;;;18.48;62.47
19736;BME280;32064;49.310;8.646;2023-03-23T11:54:33;99998.44;;;18.51;62.83
19736;BME280;32064;49.310;8.646;2023-03-23T11:57:00;99983.75;;;18.55;62.14
19736;BME280;32064;49.310;8.646;2023-03-23T12:01:57;99978.44;;;18.55;62.76
19736;BME280;32064;49.310;8.646;2023-03-23T12:04:37;99979.59;;;18.53;63.13
19736;BME280;32064;49.310;8.646;2023-03-23T12:13:02;99976.47;;;18.16;63.08
19736;BME280;32064;49.310;8.646;2023-03-23T12:15:40;99980.47;;;18.21;62.48
19736;BME280;32064;49.310;8.646;2023-03-23T12:18:49;99981.66;;;18.18;62.49
19736;BME280;32064;49.310;8.646;2023-03-23T12:27:00;99976.13;;;18.20;61.27
19736;BME280;32064;49.310;8.646;2023-03-23T12:35:37;99959.00;;;18.14;62.42
19736;BME280;32064;49.310;8.646;2023-03-23T12:41:07;99962.00;;;18.11;62.15
19736;BME280;32064;49.310;8.646;2023-03-23T12:43:57;99956.34;;;18.06;61.55
19736;BME280;32064;49.310;8.646;2023-03-23T12:49:16;99944.38;;;18.10;60.80
19736;BME280;32064;49.310;8.646;2023-03-23T12:54:44;99937.88;;;18.04;61.53
19736;BME280;32064;49.310;8.646;2023-03-23T12:57:16;99931.06;;;18.02;60.46
19736;BME280;32064;49.310;8.646;2023-03-23T13:08:12;99931.25;;;17.92;61.98
19736;BME280;32064;49.310;8.646;2023-03-23T13:10:45;99935.72;;;17.91;61.00
19736;BME280;32064;49.310;8.646;2023-03-23T13:13:18;99934.88;;;17.91;60.33
19736;BME280;32064;49.310;8.646;2023-03-23T13:18:30;99890.97;;;17.87;60.58
19736;BME280;32064;49.310;8.646;2023-03-23T13:21:20;99891.63;;;17.97;60.12
19736;BME280;32064;49.310;8.646;2023-03-23T13:23:57;99894.97;;;17.99;61.61
19736;BME280;32064;49.310;8.646;2023-03-23T13:26:24;99893.31;;;18.06;60.64
19736;BME280;32064;49.310;8.646;2023-03-23T13:29:05;99901.78;;;18.02;60.67
19736;BME280;32064;49.310;8.646;2023-03-23T13:31:38;99909.28;;;18.06;61.30
19736;BME280;32064;49.310;8.646;2023-03-23T13:34:21;99907.44;;;17.90;60.97
19736;BME280;32064;49.310;8.646;2023-03-23T13:36:58;99901.78;;;17.93;60.68
19736;BME280;32064;49.310;8.646;2023-03-23T13:39:35;99913.09;;;17.95;60.59
19736;BME280;32064;49.310;8.646;2023-03-23T13:47:20;99906.09;;;18.03;59.45
19736;BME280;32064;49.310;8.646;2023-03-23T13:49:58;99911.06;;;18.06;59.26
19736;BME280;32064;49.310;8.646;2023-03-23T13:55:30;99878.50;;;17.95;58.74
19736;BME280;32064;49.310;8.646;2023-03-23T14:05:48;99898.63;;;17.82;58.85
19736;BME280;32064;49.310;8.646;2023-03-23T14:08:20;99891.09;;;17.77;59.34
19736;BME280;32064;49.310;8.646;2023-03-23T14:11:09;99887.50;;;17.78;59.04
19736;BME280;32064;49.310;8.646;2023-03-23T14:13:45;99893.47;;;17.80;60.80
19736;BME280;32064;49.310;8.646;2023-03-23T14:16:17;99888.16;;;17.80;59.40
19736;BME280;32064;49.310;8.646;2023-03-23T14:18:51;99891.31;;;17.84;59.46
19736;BME280;32064;49.310;8.646;2023-03-23T14:21:31;99892.47;;;17.81;59.92
19736;BME280;32064;49.310;8.646;2023-03-23T14:24:02;99887.97;;;17.73;60.15
19736;BME280;32064;49.310;8.646;2023-03-23T14:26:28;99893.94;;;17.76;58.93
19736;BME280;32064;49.310;8.646;2023-03-23T14:28:54;99893.94;;;17.76;58.96
19736;BME280;32064;49.310;8.646;2023-03-23T14:31:24;99895.59;;;17.77;60.75
19736;BME280;32064;49.310;8.646;2023-03-23T14:33:51;99890.97;;;17.79;59.78
19736;BME280;32064;49.310;8.646;2023-03-23T14:36:31;99896.94;;;17.72;60.02
19736;BME280;32064;49.310;8.646;2023-03-23T14:38:59;99905.56;;;17.74;60.69
19736;BME280;32064;49.310;8.646;2023-03-23T14:41:30;99895.78;;;17.75;60.44
19736;BME280;32064;49.310;8.646;2023-03-23T14:43:57;99887.31;;;17.80;60.97
19736;BME280;32064;49.310;8.646;2023-03-23T14:46:24;99890.16;;;17.78;60.29